Airfield :
LOGIN :

Register | Disclaimer

   EN    FR    IT 

 










Legend :    VFR   Marginal VFR   IFR   Intensive IFR   Very Intensive IFR
Visi :
Ceiling :
>= 8 km
>= 3000ft
5 to 8 km
1000 to 3000 ft
1500m to 5 km
500 to 1000 ft
800 to 1500m
200 to 500 ft
< 800m
< 200 ft
Symbols :   Thunderstorms  Fog  Heavy snow  Heavy precipitations  Wind > 20 kt
SIGMETs :     Misc.  Thunderstorms  Icing  Turbulence  Mountain Waves  Volcanic Ashes







- Airport Elevation : 289 ft
- Download approach charts


LFYR - Romorantin Pruniers

CURRENT METAR :
  • 151200Z AUTO 14005KT 3600 BR OVC002 11/09 Q1022 TEMPO 9999 BECMG BKN008

EXPIRED METARs :
  • 151130Z AUTO 13005KT 3500 BR OVC002 11/09 Q1022 TEMPO 9999 BECMG BKN008
  • 151100Z AUTO 14007KT 3400 BR OVC002 10/09 Q1022 BECMG 6000 NSW BKN008
  • 151030Z AUTO 12004KT 090V150 3500 BR OVC002 10/09 Q1022 BECMG 6000 NSW BKN008
  • 151000Z AUTO 13006KT 090V150 2700 BR OVC002 10/09 Q1022 BECMG 6000 NSW BKN008
  • 150930Z AUTO 11006KT 070V150 0900 FG VV/// 10/09 Q1022 BECMG 6000 NSW BKN008

Expired Forecast.
No reported NOTAMs for that airfield.



MET'MAP, your aeronautical weather chart ! - Copyright ORBIFLY December 2007 - Disclaimer

ORBIFLY MET'MAP TEAM :

Programming & Development : Alexandra Zaïnal
Concept & Development : Baudouin d'Aumeries
Co-Development & Prog : Marc-Olivier Méhu
Technical & hardware support : Manuel Goepfert

Contact : metmap@orbifly.com




SOURCES & CREDITS :

   NOAA